Time;durP1;ratioP1;P1;durP2;ratioP2;P2;SDS_P1;SDS_P2;PMS_P1;PMS_P2;Temp;Humidity;BMP_temperature;BMP_pressure;BME280_temperature;BME280_humidity;BME280_pressure;Samples;Min_cycle;Max_cycle;Signal;HPM_P1;HPM_P2
2022/05/10 00:00:49;;;;;;;5.10;2.63;;;;;;;;;;5092528;28;20285;-53
2022/05/10 00:03:15;;;;;;;5.17;2.90;;;;;;;;;;5092594;28;20218;-53
2022/05/10 00:05:42;;;;;;;3.73;3.00;;;;;;;;;;5092458;28;20202;-53
2022/05/10 00:08:10;;;;;;;4.77;2.77;;;;;;;;;;5091992;28;20688;-53
2022/05/10 00:10:36;;;;;;;4.53;3.00;;;;;;;;;;5091791;28;20203;-53
2022/05/10 00:13:02;;;;;;;6.90;2.53;;;;;;;;;;5092414;28;20546;-53
2022/05/10 00:15:28;;;;;;;9.33;3.20;;;;;;;;;;5092054;28;20648;-53
2022/05/10 00:17:56;;;;;;;6.73;3.00;;;;;;;;;;5092324;28;20687;-53
2022/05/10 00:20:24;;;;;;;4.10;2.83;;;;;;;;;;5092367;28;20426;-53
2022/05/10 00:22:50;;;;;;;5.83;2.97;;;;;;;;;;5092146;28;20206;-53
2022/05/10 00:25:17;;;;;;;5.03;2.97;;;;;;;;;;5092084;28;20229;-53
2022/05/10 00:27:43;;;;;;;6.50;2.90;;;;;;;;;;5091845;28;20736;-54
2022/05/10 00:30:10;;;;;;;3.63;2.60;;;;;;;;;;5092141;28;20294;-52
2022/05/10 00:32:37;;;;;;;3.77;2.80;;;;;;;;;;5092195;28;20195;-52
2022/05/10 00:35:05;;;;;;;4.77;3.03;;;;;;;;;;5092233;28;20210;-52
2022/05/10 00:37:31;;;;;;;3.10;2.70;;;;;;;;;;5092073;28;20199;-52
2022/05/10 00:39:57;;;;;;;5.97;3.37;;;;;;;;;;5092239;28;20213;-52
2022/05/10 00:42:27;;;;;;;4.23;2.83;;;;;;;;;;5092049;28;20668;-52
2022/05/10 00:44:57;;;;;;;4.13;3.00;;;;;;;;;;5090255;28;20918;-53
2022/05/10 00:47:25;;;;;;;6.37;3.20;;;;;;;;;;5091817;28;20656;-52
2022/05/10 00:49:54;;;;;;;6.70;2.83;;;;;;;;;;5092105;28;20190;-52
2022/05/10 00:52:26;;;;;;;7.23;2.67;;;;;;;;;;5091981;28;20297;-52
2022/05/10 00:54:57;;;;;;;4.00;3.23;;;;;;;;;;5092020;28;20203;-53
2022/05/10 00:57:31;;;;;;;5.67;2.90;;;;;;;;;;5091894;28;20650;-52
2022/05/10 01:00:00;;;;;;;3.87;2.90;;;;;;;;;;5091883;28;20296;-54
2022/05/10 01:02:31;;;;;;;3.73;2.73;;;;;;;;;;5091784;28;20195;-52
2022/05/10 01:04:59;;;;;;;5.40;3.37;;;;;;;;;;5091754;28;20668;-52
2022/05/10 01:07:29;;;;;;;4.93;2.90;;;;;;;;;;5091771;28;20669;-52
2022/05/10 01:09:56;;;;;;;7.53;2.90;;;;;;;;;;5091944;28;20198;-52
2022/05/10 01:12:27;;;;;;;3.83;2.90;;;;;;;;;;5091545;28;20252;-53
2022/05/10 01:14:55;;;;;;;7.03;3.10;;;;;;;;;;5091696;28;20202;-52
2022/05/10 01:17:21;;;;;;;5.73;3.10;;;;;;;;;;5091408;28;20238;-52
2022/05/10 01:19:47;;;;;;;4.47;2.97;;;;;;;;;;5091816;28;20202;-52
2022/05/10 01:22:21;;;;;;;4.37;3.10;;;;;;;;;;5095456;28;20289;-52
2022/05/10 01:24:55;;;;;;;3.20;2.90;;;;;;;;;;5095202;28;20250;-53
2022/05/10 01:27:31;;;;;;;4.07;3.13;;;;;;;;;;5093916;28;20252;-54
2022/05/10 01:29:59;;;;;;;4.43;3.10;;;;;;;;;;5095658;28;20198;-53
2022/05/10 01:35:15;;;;;;;5.43;3.27;;;;;;;;;;5095365;28;20687;-53
2022/05/10 01:37:43;;;;;;;5.63;3.00;;;;;;;;;;5095279;28;20195;-54
2022/05/10 01:40:13;;;;;;;4.50;3.30;;;;;;;;;;5095302;28;20199;-53
2022/05/10 01:42:43;;;;;;;5.40;2.83;;;;;;;;;;5095076;28;20918;-54
2022/05/10 01:45:13;;;;;;;5.43;3.50;;;;;;;;;;5095352;28;20191;-53
2022/05/10 01:47:42;;;;;;;4.10;3.10;;;;;;;;;;5095003;28;20206;-53
2022/05/10 01:50:14;;;;;;;5.83;3.20;;;;;;;;;;5095059;28;20719;-53
2022/05/10 01:52:42;;;;;;;6.83;2.90;;;;;;;;;;5095009;28;20202;-53
2022/05/10 01:55:19;;;;;;;5.07;3.17;;;;;;;;;;5095129;28;20194;-53
2022/05/10 01:57:46;;;;;;;4.27;3.20;;;;;;;;;;5095209;28;20289;-54
2022/05/10 02:00:15;;;;;;;5.80;2.90;;;;;;;;;;5095051;28;20294;-53
2022/05/10 02:02:45;;;;;;;3.67;3.20;;;;;;;;;;5094845;28;20198;-53
2022/05/10 02:05:14;;;;;;;4.90;2.90;;;;;;;;;;5095021;28;20542;-53
2022/05/10 02:07:42;;;;;;;4.67;3.10;;;;;;;;;;5092976;28;20576;-53
2022/05/10 02:10:11;;;;;;;4.23;3.17;;;;;;;;;;5092938;28;20712;-54
2022/05/10 02:12:39;;;;;;;6.97;3.80;;;;;;;;;;5094803;28;20198;-53
2022/05/10 02:15:08;;;;;;;5.03;3.57;;;;;;;;;;5094452;28;20240;-53
2022/05/10 02:17:37;;;;;;;3.27;2.97;;;;;;;;;;5094230;28;20226;-53
2022/05/10 02:20:06;;;;;;;4.97;3.17;;;;;;;;;;5094541;28;20209;-53
2022/05/10 02:22:34;;;;;;;5.70;3.30;;;;;;;;;;5094513;28;20231;-53
2022/05/10 02:25:02;;;;;;;5.20;3.13;;;;;;;;;;5094536;28;20218;-54
2022/05/10 02:27:30;;;;;;;4.20;3.10;;;;;;;;;;5094534;28;20199;-53
2022/05/10 02:30:00;;;;;;;4.93;3.37;;;;;;;;;;5094483;28;20218;-53
2022/05/10 02:35:15;;;;;;;5.60;3.43;;;;;;;;;;5094775;28;20256;-53
2022/05/10 02:37:41;;;;;;;5.53;3.80;;;;;;;;;;5094208;28;20700;-54
2022/05/10 02:40:08;;;;;;;4.57;3.40;;;;;;;;;;5094237;28;20223;-53
2022/05/10 02:42:35;;;;;;;6.50;3.20;;;;;;;;;;5094132;28;20198;-54
2022/05/10 02:45:01;;;;;;;4.10;3.50;;;;;;;;;;5094062;28;20538;-54
2022/05/10 02:47:29;;;;;;;4.40;3.40;;;;;;;;;;5093833;28;20195;-53
2022/05/10 02:49:55;;;;;;;5.50;3.30;;;;;;;;;;5093918;28;20293;-53
2022/05/10 02:52:22;;;;;;;4.13;3.03;;;;;;;;;;5093887;28;20357;-53
2022/05/10 02:54:53;;;;;;;3.87;3.13;;;;;;;;;;5093771;28;20199;-53
2022/05/10 02:57:19;;;;;;;4.80;3.40;;;;;;;;;;5093810;28;20219;-53
2022/05/10 02:59:45;;;;;;;3.80;3.30;;;;;;;;;;5094004;28;20544;-54
2022/05/10 03:02:14;;;;;;;4.60;3.00;;;;;;;;;;5093822;28;20281;-53
2022/05/10 03:04:41;;;;;;;4.60;3.40;;;;;;;;;;5093568;28;20233;-53
2022/05/10 03:07:09;;;;;;;4.00;3.33;;;;;;;;;;5093561;28;20598;-53
2022/05/10 03:09:36;;;;;;;9.10;3.67;;;;;;;;;;5093459;28;20676;-53
2022/05/10 03:12:03;;;;;;;8.30;3.70;;;;;;;;;;5093561;28;20271;-53
2022/05/10 03:14:29;;;;;;;8.73;4.53;;;;;;;;;;5093530;28;20821;-53
2022/05/10 03:16:55;;;;;;;5.40;3.90;;;;;;;;;;5093202;28;20249;-53
2022/05/10 03:19:21;;;;;;;4.57;3.20;;;;;;;;;;5093014;28;20205;-53
2022/05/10 03:21:47;;;;;;;4.30;3.33;;;;;;;;;;5093143;28;20613;-53
2022/05/10 03:24:13;;;;;;;4.47;3.40;;;;;;;;;;5093287;28;20339;-53
2022/05/10 03:26:44;;;;;;;4.43;3.27;;;;;;;;;;5092560;28;20701;-53
2022/05/10 03:29:10;;;;;;;3.87;3.50;;;;;;;;;;5093203;28;20195;-53
2022/05/10 03:31:36;;;;;;;5.33;3.60;;;;;;;;;;5091266;28;20733;-53
2022/05/10 03:36:47;;;;;;;3.77;3.47;;;;;;;;;;5091225;28;20225;-53
2022/05/10 03:39:13;;;;;;;5.53;3.90;;;;;;;;;;5093104;28;20199;-53
2022/05/10 03:41:41;;;;;;;7.97;3.53;;;;;;;;;;5092872;28;20737;-53
2022/05/10 03:44:07;;;;;;;6.37;3.50;;;;;;;;;;5092813;28;20286;-53
2022/05/10 03:46:33;;;;;;;4.80;3.70;;;;;;;;;;5092794;28;20202;-53
2022/05/10 03:49:00;;;;;;;4.07;3.60;;;;;;;;;;5092988;28;20199;-53
2022/05/10 03:51:26;;;;;;;5.23;3.73;;;;;;;;;;5092824;28;20195;-53
2022/05/10 03:53:52;;;;;;;8.27;3.93;;;;;;;;;;5092783;28;20676;-53
2022/05/10 03:56:18;;;;;;;7.10;3.90;;;;;;;;;;5092632;28;20226;-53
2022/05/10 03:58:45;;;;;;;5.70;3.87;;;;;;;;;;5092588;28;20199;-53
2022/05/10 04:01:11;;;;;;;4.93;4.20;;;;;;;;;;5092851;28;20194;-53
2022/05/10 04:03:37;;;;;;;5.40;4.00;;;;;;;;;;5092527;28;20195;-53
2022/05/10 04:06:04;;;;;;;5.63;4.33;;;;;;;;;;5092485;28;20233;-53
2022/05/10 04:08:30;;;;;;;5.57;3.90;;;;;;;;;;5092514;28;20229;-53
2022/05/10 04:11:01;;;;;;;4.90;4.23;;;;;;;;;;5092396;28;20539;-53
2022/05/10 04:13:27;;;;;;;7.17;5.17;;;;;;;;;;5092378;28;20194;-53
2022/05/10 04:15:54;;;;;;;4.93;4.13;;;;;;;;;;5092106;28;20242;-53
2022/05/10 04:18:20;;;;;;;6.20;4.10;;;;;;;;;;5092317;28;20199;-53
2022/05/10 04:20:46;;;;;;;5.57;4.50;;;;;;;;;;5092268;28;20673;-53
2022/05/10 04:23:12;;;;;;;5.13;4.10;;;;;;;;;;5092235;28;20195;-53
2022/05/10 04:25:38;;;;;;;5.33;4.33;;;;;;;;;;5092150;28;20215;-53
2022/05/10 04:28:06;;;;;;;5.73;4.07;;;;;;;;;;5092228;28;20197;-53
2022/05/10 04:30:32;;;;;;;6.07;3.73;;;;;;;;;;5092180;28;20742;-53
2022/05/10 04:32:59;;;;;;;4.97;3.80;;;;;;;;;;5092136;28;20252;-52
2022/05/10 04:35:25;;;;;;;4.23;3.83;;;;;;;;;;5091915;28;20206;-53
2022/05/10 04:37:51;;;;;;;6.07;4.50;;;;;;;;;;5090242;28;20207;-53
2022/05/10 04:43:05;;;;;;;5.13;4.60;;;;;;;;;;5092191;28;20205;-53
2022/05/10 04:45:31;;;;;;;6.40;5.30;;;;;;;;;;5090460;28;20679;-53
2022/05/10 04:47:57;;;;;;;7.93;5.73;;;;;;;;;;5092107;28;20199;-53
2022/05/10 04:50:24;;;;;;;6.60;4.90;;;;;;;;;;5092009;28;20634;-53
2022/05/10 04:52:50;;;;;;;7.37;4.40;;;;;;;;;;5091969;28;20259;-53
2022/05/10 04:55:16;;;;;;;4.67;3.87;;;;;;;;;;5092879;28;20194;-53
2022/05/10 04:57:42;;;;;;;7.07;4.30;;;;;;;;;;5095935;28;20199;-53
2022/05/10 05:00:10;;;;;;;4.87;4.27;;;;;;;;;;5095842;28;20653;-54
2022/05/10 05:02:36;;;;;;;5.07;4.20;;;;;;;;;;5095704;28;20707;-54
2022/05/10 05:05:02;;;;;;;5.43;4.50;;;;;;;;;;5095888;28;20298;-54
2022/05/10 05:07:29;;;;;;;4.87;3.93;;;;;;;;;;5096061;28;20198;-54
2022/05/10 05:09:55;;;;;;;5.33;4.10;;;;;;;;;;5095773;28;20297;-53
2022/05/10 05:12:22;;;;;;;4.97;3.60;;;;;;;;;;5095883;28;20207;-54
2022/05/10 05:14:48;;;;;;;4.97;3.83;;;;;;;;;;5095666;28;20201;-54
2022/05/10 05:17:14;;;;;;;4.37;3.90;;;;;;;;;;5095301;28;20238;-54
2022/05/10 05:19:39;;;;;;;6.70;4.03;;;;;;;;;;5095297;28;20542;-54
2022/05/10 05:22:05;;;;;;;8.30;4.40;;;;;;;;;;5095547;28;20198;-54
2022/05/10 05:24:33;;;;;;;6.67;4.20;;;;;;;;;;5095288;28;20241;-55
2022/05/10 05:26:59;;;;;;;5.13;3.90;;;;;;;;;;5095564;28;20206;-53
2022/05/10 05:29:27;;;;;;;4.43;3.90;;;;;;;;;;5095646;28;20273;-53
2022/05/10 05:31:53;;;;;;;5.10;3.70;;;;;;;;;;5095230;28;20199;-53
2022/05/10 05:34:19;;;;;;;5.47;4.40;;;;;;;;;;5095136;28;20649;-54
2022/05/10 05:37:32;;;;;;;4.67;3.47;;;;;;;;;;5095440;28;20309;-54
2022/05/10 05:39:31;;;;;;;4.83;3.90;;;;;;;;;;5095056;28;20745;-53
2022/05/10 05:41:58;;;;;;;4.43;3.93;;;;;;;;;;5095367;28;20187;-54
2022/05/10 05:44:25;;;;;;;6.37;3.70;;;;;;;;;;5095201;28;20194;-53
2022/05/10 05:46:51;;;;;;;4.03;3.43;;;;;;;;;;5094956;28;20271;-53
2022/05/10 05:49:17;;;;;;;7.03;3.63;;;;;;;;;;5095253;28;20282;-53
2022/05/10 05:51:43;;;;;;;3.80;3.43;;;;;;;;;;5094965;28;20527;-53
2022/05/10 05:54:10;;;;;;;4.97;3.43;;;;;;;;;;5095149;28;20222;-54
2022/05/10 05:56:36;;;;;;;6.27;3.30;;;;;;;;;;5094633;28;20684;-54
2022/05/10 05:59:03;;;;;;;4.73;3.23;;;;;;;;;;5095159;28;20241;-54
2022/05/10 06:01:29;;;;;;;4.27;3.67;;;;;;;;;;5094845;28;20564;-53
2022/05/10 06:03:58;;;;;;;6.43;3.60;;;;;;;;;;5094894;28;20202;-54
2022/05/10 06:06:25;;;;;;;4.17;3.33;;;;;;;;;;5093543;28;20195;-53
2022/05/10 06:08:51;;;;;;;3.77;3.20;;;;;;;;;;5094584;28;20195;-54
2022/05/10 06:11:17;;;;;;;3.47;3.17;;;;;;;;;;5094721;28;20274;-54
2022/05/10 06:13:43;;;;;;;3.50;3.20;;;;;;;;;;5094722;28;20677;-53
2022/05/10 06:16:10;;;;;;;3.83;3.30;;;;;;;;;;5089901;28;20226;-54
2022/05/10 06:18:36;;;;;;;5.27;3.40;;;;;;;;;;5094291;28;20210;-53
2022/05/10 06:21:03;;;;;;;5.03;3.13;;;;;;;;;;5094488;28;20730;-53
2022/05/10 06:23:29;;;;;;;3.50;3.20;;;;;;;;;;5094331;28;20274;-52
2022/05/10 06:25:55;;;;;;;4.13;3.70;;;;;;;;;;5094066;28;20217;-53
2022/05/10 06:28:21;;;;;;;5.23;3.73;;;;;;;;;;5093943;28;20261;-54
2022/05/10 06:30:47;;;;;;;4.23;3.20;;;;;;;;;;5092266;28;20689;-54
2022/05/10 06:33:16;;;;;;;5.40;3.70;;;;;;;;;;5094328;28;20241;-54
2022/05/10 06:35:44;;;;;;;4.33;3.50;;;;;;;;;;5094027;28;20687;-54
2022/05/10 06:38:16;;;;;;;5.67;3.40;;;;;;;;;;5094107;28;20224;-54
2022/05/10 06:40:42;;;;;;;3.90;3.50;;;;;;;;;;5094017;28;20198;-54
2022/05/10 06:43:08;;;;;;;5.43;3.30;;;;;;;;;;5093988;28;20235;-54
2022/05/10 06:45:34;;;;;;;5.40;3.60;;;;;;;;;;5093825;28;20205;-54
2022/05/10 06:48:00;;;;;;;4.23;3.40;;;;;;;;;;5094061;28;20307;-54
2022/05/10 06:50:28;;;;;;;3.70;3.40;;;;;;;;;;5093946;28;20201;-54
2022/05/10 06:52:57;;;;;;;3.77;3.47;;;;;;;;;;5093739;28;20212;-54
2022/05/10 06:55:23;;;;;;;4.87;3.57;;;;;;;;;;5093733;28;20379;-54
2022/05/10 06:57:49;;;;;;;3.77;3.37;;;;;;;;;;5093687;28;20213;-54
2022/05/10 07:00:16;;;;;;;3.70;3.20;;;;;;;;;;5093863;28;20642;-54
2022/05/10 07:02:42;;;;;;;5.20;3.47;;;;;;;;;;5093627;28;20195;-54
2022/05/10 07:05:09;;;;;;;5.23;3.60;;;;;;;;;;5092265;28;20560;-54
2022/05/10 07:07:36;;;;;;;4.57;3.57;;;;;;;;;;5093334;28;20195;-54
2022/05/10 07:10:03;;;;;;;5.00;3.40;;;;;;;;;;5093585;28;20197;-54
2022/05/10 07:12:29;;;;;;;5.03;3.30;;;;;;;;;;5093470;28;20259;-54
2022/05/10 07:14:55;;;;;;;4.40;3.70;;;;;;;;;;5093543;28;20532;-54
2022/05/10 07:17:21;;;;;;;3.40;3.00;;;;;;;;;;5092642;28;20234;-54
2022/05/10 07:19:47;;;;;;;3.93;3.10;;;;;;;;;;5093071;28;20244;-54
2022/05/10 07:22:13;;;;;;;4.13;3.73;;;;;;;;;;5093441;28;20202;-54
2022/05/10 07:24:40;;;;;;;3.97;3.10;;;;;;;;;;5093005;28;20598;-53
2022/05/10 07:27:06;;;;;;;5.27;3.30;;;;;;;;;;5093268;28;20206;-54
2022/05/10 07:29:32;;;;;;;4.80;3.37;;;;;;;;;;5093129;28;20246;-53
2022/05/10 07:31:58;;;;;;;6.43;3.47;;;;;;;;;;5092934;28;20276;-53
2022/05/10 07:34:24;;;;;;;4.10;3.60;;;;;;;;;;5092846;28;20206;-54
2022/05/10 07:36:50;;;;;;;5.73;3.43;;;;;;;;;;5092879;28;20588;-54
2022/05/10 07:39:17;;;;;;;4.53;3.40;;;;;;;;;;5093036;28;20202;-55
2022/05/10 07:41:46;;;;;;;8.37;3.57;;;;;;;;;;5092978;28;20223;-56
2022/05/10 07:44:13;;;;;;;10.10;4.47;;;;;;;;;;5092997;28;20222;-54
2022/05/10 07:46:39;;;;;;;4.20;3.50;;;;;;;;;;5092598;28;20604;-53
2022/05/10 07:49:05;;;;;;;6.37;3.50;;;;;;;;;;5092656;28;20707;-53
2022/05/10 07:51:31;;;;;;;7.83;4.83;;;;;;;;;;5092739;28;20285;-53
2022/05/10 07:53:57;;;;;;;8.40;4.40;;;;;;;;;;5092743;28;20199;-52
2022/05/10 07:56:24;;;;;;;4.37;3.47;;;;;;;;;;5092434;28;20274;-54
2022/05/10 07:58:52;;;;;;;4.50;3.80;;;;;;;;;;5092452;28;20199;-53
2022/05/10 08:01:19;;;;;;;4.93;3.60;;;;;;;;;;5092136;28;20256;-57
2022/05/10 08:03:45;;;;;;;7.30;3.70;;;;;;;;;;5092300;28;20199;-54
2022/05/10 08:06:11;;;;;;;6.87;4.07;;;;;;;;;;5092487;28;20658;-52
2022/05/10 08:08:38;;;;;;;6.73;4.40;;;;;;;;;;5092520;28;20209;-53
2022/05/10 08:11:04;;;;;;;4.13;3.70;;;;;;;;;;5092603;28;20195;-53
2022/05/10 08:13:31;;;;;;;4.23;3.83;;;;;;;;;;5092523;28;20200;-53
2022/05/10 08:15:59;;;;;;;5.90;4.10;;;;;;;;;;5092100;28;20261;-54
2022/05/10 08:18:25;;;;;;;6.30;4.00;;;;;;;;;;5092169;28;20669;-54
2022/05/10 08:20:52;;;;;;;5.40;4.17;;;;;;;;;;5092152;28;20199;-54
2022/05/10 08:23:21;;;;;;;7.67;3.77;;;;;;;;;;5092311;28;20203;-54
2022/05/10 08:25:48;;;;;;;5.43;4.00;;;;;;;;;;5092062;28;20218;-53
2022/05/10 08:28:14;;;;;;;7.33;4.17;;;;;;;;;;5092294;28;20248;-54
2022/05/10 08:30:40;;;;;;;5.90;3.80;;;;;;;;;;5091452;28;20658;-53
2022/05/10 08:33:10;;;;;;;12.00;4.40;;;;;;;;;;5091993;28;20619;-54
2022/05/10 08:35:36;;;;;;;6.63;4.53;;;;;;;;;;5091914;28;20283;-54
2022/05/10 08:38:02;;;;;;;5.23;3.40;;;;;;;;;;5092304;28;20208;-54
2022/05/10 08:40:30;;;;;;;4.80;4.30;;;;;;;;;;5091757;28;20194;-53
2022/05/10 08:42:59;;;;;;;5.77;4.00;;;;;;;;;;5092174;28;20199;-53
2022/05/10 08:45:25;;;;;;;3.77;3.47;;;;;;;;;;5092031;28;20203;-53
2022/05/10 08:47:52;;;;;;;7.43;4.07;;;;;;;;;;5091845;28;20195;-53
2022/05/10 08:50:19;;;;;;;9.03;4.47;;;;;;;;;;5092016;28;20199;-53
2022/05/10 08:52:47;;;;;;;6.03;3.70;;;;;;;;;;5091738;28;20689;-53
2022/05/10 08:55:24;;;;;;;5.40;3.83;;;;;;;;;;5092047;28;20202;-53
2022/05/10 08:57:52;;;;;;;6.40;3.53;;;;;;;;;;5091671;28;20240;-53
2022/05/10 09:00:24;;;;;;;6.43;3.47;;;;;;;;;;5091954;28;20196;-53
2022/05/10 09:02:52;;;;;;;6.30;3.77;;;;;;;;;;5091654;28;20199;-53
2022/05/10 09:05:22;;;;;;;5.33;3.97;;;;;;;;;;5091882;28;20252;-52
2022/05/10 09:07:51;;;;;;;6.07;3.90;;;;;;;;;;5091662;28;20195;-53
2022/05/10 09:10:20;;;;;;;6.80;3.53;;;;;;;;;;5091729;28;20200;-53
2022/05/10 09:12:48;;;;;;;3.97;3.47;;;;;;;;;;5091782;28;20201;-53
2022/05/10 09:15:15;;;;;;;7.17;4.00;;;;;;;;;;5091701;28;20253;-54
2022/05/10 09:17:41;;;;;;;5.47;3.70;;;;;;;;;;5091603;28;20235;-53
2022/05/10 09:20:08;;;;;;;4.77;3.50;;;;;;;;;;5091625;28;20228;-53
2022/05/10 09:22:40;;;;;;;7.23;3.90;;;;;;;;;;5091628;28;20198;-53
2022/05/10 09:25:12;;;;;;;6.20;3.60;;;;;;;;;;5091516;28;20955;-53
2022/05/10 09:27:39;;;;;;;4.83;3.13;;;;;;;;;;5091593;28;20220;-53
2022/05/10 09:30:05;;;;;;;5.30;3.70;;;;;;;;;;5091519;28;20189;-54
2022/05/10 09:35:18;;;;;;;4.73;3.47;;;;;;;;;;5091609;28;20680;-53
2022/05/10 09:37:50;;;;;;;4.83;3.33;;;;;;;;;;5091305;28;20713;-53
2022/05/10 09:40:28;;;;;;;5.93;3.50;;;;;;;;;;5091460;28;20617;-53
2022/05/10 09:43:10;;;;;;;4.97;3.50;;;;;;;;;;5094963;28;20209;-53
2022/05/10 09:45:36;;;;;;;9.43;3.70;;;;;;;;;;5095102;28;20203;-53
2022/05/10 09:48:10;;;;;;;7.37;3.07;;;;;;;;;;5095290;28;20197;-53
2022/05/10 09:50:39;;;;;;;4.00;3.37;;;;;;;;;;5095070;28;20297;-53
2022/05/10 09:53:13;;;;;;;9.00;3.93;;;;;;;;;;5095087;28;20717;-53
2022/05/10 09:55:40;;;;;;;5.37;3.10;;;;;;;;;;5094802;28;20561;-54
2022/05/10 09:58:12;;;;;;;5.17;3.07;;;;;;;;;;5094984;28;20208;-54
2022/05/10 10:00:40;;;;;;;8.97;3.30;;;;;;;;;;5094784;28;20213;-54
2022/05/10 10:03:06;;;;;;;4.77;3.13;;;;;;;;;;5094689;28;20199;-54
2022/05/10 10:05:33;;;;;;;6.33;3.30;;;;;;;;;;5094970;28;20612;-54
2022/05/10 10:07:59;;;;;;;6.67;3.70;;;;;;;;;;5094870;28;20198;-54
2022/05/10 10:10:28;;;;;;;4.70;3.40;;;;;;;;;;5094856;28;20203;-55
2022/05/10 10:12:54;;;;;;;6.73;3.60;;;;;;;;;;5094566;28;20730;-54
2022/05/10 10:15:24;;;;;;;5.63;3.60;;;;;;;;;;5093981;28;20294;-55
2022/05/10 10:17:51;;;;;;;7.10;3.80;;;;;;;;;;5094281;28;20225;-54
2022/05/10 10:20:20;;;;;;;6.93;3.20;;;;;;;;;;5094475;28;20688;-54
2022/05/10 10:22:48;;;;;;;7.63;3.50;;;;;;;;;;5094304;28;20197;-54
2022/05/10 10:25:17;;;;;;;4.63;2.90;;;;;;;;;;5094412;28;20229;-54
2022/05/10 10:27:46;;;;;;;6.60;3.60;;;;;;;;;;5094263;28;20287;-54
2022/05/10 10:30:18;;;;;;;6.80;4.00;;;;;;;;;;5094233;28;20723;-54
2022/05/10 10:32:46;;;;;;;4.80;3.50;;;;;;;;;;5094174;28;20194;-55
2022/05/10 10:35:15;;;;;;;4.27;3.40;;;;;;;;;;5094364;28;20191;-54
2022/05/10 10:37:43;;;;;;;4.80;3.30;;;;;;;;;;5094095;28;20313;-55
2022/05/10 10:40:16;;;;;;;8.07;3.50;;;;;;;;;;5094240;28;20269;-55
2022/05/10 10:42:49;;;;;;;5.23;3.63;;;;;;;;;;5094079;28;20246;-55
2022/05/10 10:45:17;;;;;;;4.10;3.17;;;;;;;;;;5094189;28;20700;-54
2022/05/10 10:47:46;;;;;;;4.57;3.50;;;;;;;;;;5094086;28;20227;-55
2022/05/10 10:50:16;;;;;;;7.17;3.20;;;;;;;;;;5092205;28;20198;-55
2022/05/10 10:52:42;;;;;;;6.43;3.33;;;;;;;;;;5092706;28;20234;-55
2022/05/10 10:55:09;;;;;;;5.53;3.20;;;;;;;;;;5093630;28;20208;-55
2022/05/10 10:57:43;;;;;;;4.67;3.23;;;;;;;;;;5093298;28;20239;-55
2022/05/10 11:00:11;;;;;;;4.30;3.43;;;;;;;;;;5093496;28;20225;-55
2022/05/10 11:02:50;;;;;;;3.93;3.33;;;;;;;;;;5091941;28;20196;-55
2022/05/10 11:05:25;;;;;;;6.70;3.43;;;;;;;;;;5093502;28;20208;-55
2022/05/10 11:07:54;;;;;;;5.37;3.33;;;;;;;;;;5093196;28;20207;-54
2022/05/10 11:10:23;;;;;;;4.97;3.07;;;;;;;;;;5093180;28;20279;-56
2022/05/10 11:12:52;;;;;;;4.87;3.57;;;;;;;;;;5093043;28;20246;-55
2022/05/10 11:15:25;;;;;;;3.77;3.20;;;;;;;;;;5092823;28;20662;-54
2022/05/10 11:17:59;;;;;;;6.63;3.00;;;;;;;;;;5092724;28;20230;-54
2022/05/10 11:20:31;;;;;;;7.70;3.37;;;;;;;;;;5092907;28;20568;-54
2022/05/10 11:22:59;;;;;;;7.50;3.73;;;;;;;;;;5093219;28;20282;-55
2022/05/10 11:25:29;;;;;;;4.93;3.70;;;;;;;;;;5092780;28;20283;-55
2022/05/10 11:28:10;;;;;;;5.07;3.73;;;;;;;;;;5093078;28;20293;-55
2022/05/10 11:30:40;;;;;;;3.60;3.30;;;;;;;;;;5093240;28;20252;-54
2022/05/10 11:33:17;;;;;;;3.93;3.23;;;;;;;;;;5093064;28;20623;-55
2022/05/10 11:35:51;;;;;;;5.63;3.37;;;;;;;;;;5093008;28;20208;-55
2022/05/10 11:38:24;;;;;;;3.93;3.50;;;;;;;;;;5093150;28;20612;-54
2022/05/10 11:40:59;;;;;;;7.07;3.90;;;;;;;;;;5092934;28;20206;-54
2022/05/10 11:43:39;;;;;;;5.27;3.57;;;;;;;;;;5093108;28;20210;-54
2022/05/10 11:46:16;;;;;;;8.07;3.20;;;;;;;;;;5093147;28;20282;-55
2022/05/10 11:49:00;;;;;;;7.43;3.33;;;;;;;;;;5092717;28;20277;-54
2022/05/10 11:51:39;;;;;;;5.63;3.33;;;;;;;;;;5090673;28;20280;-54
2022/05/10 11:54:13;;;;;;;5.47;3.27;;;;;;;;;;5092563;28;20223;-54
2022/05/10 11:56:40;;;;;;;5.10;2.97;;;;;;;;;;5092357;28;20267;-54
2022/05/10 11:59:09;;;;;;;5.40;3.30;;;;;;;;;;5092310;28;20299;-54
2022/05/10 12:01:43;;;;;;;5.63;3.53;;;;;;;;;;5092220;28;20207;-54
2022/05/10 12:04:32;;;;;;;3.50;3.03;;;;;;;;;;5092196;28;20250;-54
2022/05/10 12:07:20;;;;;;;2.87;2.57;;;;;;;;;;5092219;28;20204;-55
2022/05/10 12:10:00;;;;;;;3.53;2.80;;;;;;;;;;5092037;28;20207;-55
2022/05/10 12:12:45;;;;;;;3.70;2.67;;;;;;;;;;5092150;28;20245;-54
2022/05/10 12:21:19;;;;;;;7.53;3.30;;;;;;;;;;5091942;28;20696;-54
2022/05/10 12:21:28;;;;;;;6.97;3.23;;;;;;;;;;5091942;28;20201;-55
2022/05/10 12:24:14;;;;;;;3.43;2.73;;;;;;;;;;5076189;28;20570;-55
2022/05/10 12:26:44;;;;;;;3.03;2.70;;;;;;;;;;5086755;28;20203;-54
2022/05/10 12:29:28;;;;;;;5.50;2.97;;;;;;;;;;5091855;28;20195;-56
2022/05/10 12:31:56;;;;;;;3.97;2.97;;;;;;;;;;5091555;28;20626;-55
2022/05/10 12:34:43;;;;;;;4.43;2.70;;;;;;;;;;5091695;28;20252;-55
2022/05/10 12:37:28;;;;;;;3.17;2.80;;;;;;;;;;5091696;28;20226;-53
2022/05/10 12:39:54;;;;;;;4.10;2.90;;;;;;;;;;5091612;28;20188;-54
2022/05/10 12:42:27;;;;;;;3.47;2.67;;;;;;;;;;5091500;28;20672;-54
2022/05/10 12:45:02;;;;;;;3.33;2.70;;;;;;;;;;5091722;28;20202;-54
2022/05/10 12:47:37;;;;;;;4.10;2.83;;;;;;;;;;5091732;28;20194;-54
2022/05/10 12:50:08;;;;;;;3.50;2.40;;;;;;;;;;5091640;28;20242;-54
2022/05/10 12:52:43;;;;;;;8.27;2.97;;;;;;;;;;5091644;28;20212;-55
2022/05/10 12:55:10;;;;;;;4.00;3.07;;;;;;;;;;5091732;28;20205;-55
2022/05/10 12:57:43;;;;;;;3.13;2.80;;;;;;;;;;5091338;28;20332;-54
2022/05/10 13:00:12;;;;;;;3.37;3.00;;;;;;;;;;5091536;28;20202;-54
2022/05/10 13:02:39;;;;;;;4.57;2.97;;;;;;;;;;5091561;28;20656;-54
2022/05/10 13:05:07;;;;;;;4.90;2.90;;;;;;;;;;5091258;28;20685;-54
2022/05/10 13:07:43;;;;;;;3.73;2.90;;;;;;;;;;5091353;28;20186;-54
2022/05/10 13:10:10;;;;;;;4.53;3.07;;;;;;;;;;5091404;28;20209;-54
2022/05/10 13:12:37;;;;;;;4.53;2.93;;;;;;;;;;5091209;28;20198;-54
2022/05/10 13:15:13;;;;;;;3.77;2.90;;;;;;;;;;5091184;28;20195;-54
2022/05/10 13:17:42;;;;;;;3.80;2.87;;;;;;;;;;5094472;28;20728;-55
2022/05/10 13:20:12;;;;;;;6.37;3.30;;;;;;;;;;5095322;28;20666;-54
2022/05/10 13:22:38;;;;;;;5.87;2.90;;;;;;;;;;5095172;28;20720;-55
2022/05/10 13:25:06;;;;;;;4.20;2.83;;;;;;;;;;5095173;28;20219;-57
2022/05/10 13:27:33;;;;;;;4.63;2.90;;;;;;;;;;5095367;28;20219;-54
2022/05/10 13:30:05;;;;;;;5.60;2.93;;;;;;;;;;5095403;28;20203;-54
2022/05/10 13:32:34;;;;;;;5.23;2.80;;;;;;;;;;5095248;28;20218;-54
2022/05/10 13:35:06;;;;;;;3.97;3.03;;;;;;;;;;5095030;28;20283;-54
2022/05/10 13:37:33;;;;;;;4.77;2.73;;;;;;;;;;5095019;28;20226;-54
2022/05/10 13:40:00;;;;;;;3.37;2.60;;;;;;;;;;5095096;28;20222;-54
2022/05/10 13:42:26;;;;;;;3.17;2.83;;;;;;;;;;5095021;28;20550;-54
2022/05/10 13:44:53;;;;;;;3.43;3.10;;;;;;;;;;5094701;28;20673;-54
2022/05/10 13:47:25;;;;;;;7.57;2.87;;;;;;;;;;5094584;28;20199;-54
2022/05/10 13:49:53;;;;;;;10.23;3.10;;;;;;;;;;5094805;28;20538;-54
2022/05/10 13:52:26;;;;;;;3.77;3.17;;;;;;;;;;5094739;28;20198;-54
2022/05/10 13:54:55;;;;;;;3.27;2.97;;;;;;;;;;5094930;28;20290;-54
2022/05/10 13:57:26;;;;;;;5.03;2.97;;;;;;;;;;5094833;28;20648;-54
2022/05/10 13:59:52;;;;;;;6.33;3.07;;;;;;;;;;5094972;28;20294;-53
2022/05/10 14:02:22;;;;;;;4.60;2.97;;;;;;;;;;5094855;28;20202;-54
2022/05/10 14:04:50;;;;;;;4.60;2.90;;;;;;;;;;5092578;28;20260;-53
2022/05/10 14:07:20;;;;;;;4.57;2.70;;;;;;;;;;5094000;28;20238;-54
2022/05/10 14:09:47;;;;;;;7.67;2.83;;;;;;;;;;5094481;28;20289;-54
2022/05/10 14:12:19;;;;;;;4.47;2.97;;;;;;;;;;5094324;28;20578;-54
2022/05/10 14:14:45;;;;;;;3.80;3.10;;;;;;;;;;5094354;28;20290;-54
2022/05/10 14:17:12;;;;;;;7.90;2.50;;;;;;;;;;5094006;28;20276;-54
2022/05/10 14:19:40;;;;;;;6.50;2.70;;;;;;;;;;5094076;28;20194;-53
2022/05/10 14:22:12;;;;;;;3.43;2.37;;;;;;;;;;5094122;28;20649;-53
2022/05/10 14:24:39;;;;;;;4.03;2.80;;;;;;;;;;5093964;28;20524;-54
2022/05/10 14:27:10;;;;;;;4.47;2.70;;;;;;;;;;5093619;28;20275;-54
2022/05/10 14:29:39;;;;;;;3.23;2.33;;;;;;;;;;5093346;28;20222;-54
2022/05/10 14:32:07;;;;;;;5.03;2.60;;;;;;;;;;5094004;28;20660;-55
2022/05/10 14:34:44;;;;;;;6.33;2.47;;;;;;;;;;5093974;28;20286;-54
2022/05/10 14:37:11;;;;;;;8.03;2.53;;;;;;;;;;5093880;28;20226;-54
2022/05/10 14:39:37;;;;;;;4.00;2.90;;;;;;;;;;5093816;28;20695;-54
2022/05/10 14:42:05;;;;;;;5.15;2.70;;;;;;;;;;5092733;28;20398;-54
2022/05/10 14:44:37;;;;;;;3.77;2.20;;;;;;;;;;5094414;28;20202;-54
2022/05/10 14:47:15;;;;;;;4.33;2.60;;;;;;;;;;5094070;28;20648;-54
2022/05/10 14:49:43;;;;;;;3.73;2.73;;;;;;;;;;5094184;28;20563;-53
2022/05/10 14:52:21;;;;;;;4.27;2.73;;;;;;;;;;5094007;28;20259;-53
2022/05/10 14:54:48;;;;;;;3.85;2.70;;;;;;;;;;5092726;28;20466;-54
2022/05/10 14:57:20;;;;;;;3.77;2.53;;;;;;;;;;5093943;28;20746;-54
2022/05/10 14:59:53;;;;;;;5.43;2.80;;;;;;;;;;5093816;28;20277;-53
2022/05/10 15:02:24;;;;;;;5.23;2.70;;;;;;;;;;5093721;28;20724;-55
2022/05/10 15:04:50;;;;;;;3.47;2.50;;;;;;;;;;5093847;28;20276;-55
2022/05/10 15:07:16;;;;;;;6.93;2.90;;;;;;;;;;5093684;28;20189;-55
2022/05/10 15:09:43;;;;;;;3.50;2.50;;;;;;;;;;5093661;28;20285;-54